sensor_id;sensor_type;location;lat;lon;timestamp;temperature;humidity
30288;DHT22;17103;48.316;11.558;2022-11-15T00:00:24;15.20;41.50
30288;DHT22;17103;48.316;11.558;2022-11-15T00:02:52;15.20;41.60
30288;DHT22;17103;48.316;11.558;2022-11-15T00:05:18;15.20;41.60
30288;DHT22;17103;48.316;11.558;2022-11-15T00:07:43;15.10;41.40
30288;DHT22;17103;48.316;11.558;2022-11-15T00:10:09;15.10;41.50
30288;DHT22;17103;48.316;11.558;2022-11-15T00:12:36;15.10;41.50
30288;DHT22;17103;48.316;11.558;2022-11-15T00:15:02;15.70;42.00
30288;DHT22;17103;48.316;11.558;2022-11-15T00:17:27;15.10;41.50
30288;DHT22;17103;48.316;11.558;2022-11-15T00:19:53;15.20;41.60
30288;DHT22;17103;48.316;11.558;2022-11-15T00:22:18;15.10;41.40
30288;DHT22;17103;48.316;11.558;2022-11-15T00:24:44;15.00;41.30
30288;DHT22;17103;48.316;11.558;2022-11-15T00:27:10;15.00;41.10
30288;DHT22;17103;48.316;11.558;2022-11-15T00:29:35;15.00;41.60
30288;DHT22;17103;48.316;11.558;2022-11-15T00:32:04;14.90;41.80
30288;DHT22;17103;48.316;11.558;2022-11-15T00:34:30;14.90;41.10
30288;DHT22;17103;48.316;11.558;2022-11-15T00:36:56;14.90;40.70
30288;DHT22;17103;48.316;11.558;2022-11-15T00:39:22;14.80;40.80
30288;DHT22;17103;48.316;11.558;2022-11-15T00:41:47;14.80;40.70
30288;DHT22;17103;48.316;11.558;2022-11-15T00:44:13;14.70;40.70
30288;DHT22;17103;48.316;11.558;2022-11-15T00:46:38;15.00;41.00
30288;DHT22;17103;48.316;11.558;2022-11-15T00:49:04;14.70;40.80
30288;DHT22;17103;48.316;11.558;2022-11-15T00:51:30;14.60;40.80
30288;DHT22;17103;48.316;11.558;2022-11-15T00:53:55;14.60;41.00
30288;DHT22;17103;48.316;11.558;2022-11-15T00:56:21;14.60;41.10
30288;DHT22;17103;48.316;11.558;2022-11-15T00:58:47;14.70;41.10
30288;DHT22;17103;48.316;11.558;2022-11-15T01:01:13;15.00;41.40
30288;DHT22;17103;48.316;11.558;2022-11-15T01:03:40;14.60;41.00
30288;DHT22;17103;48.316;11.558;2022-11-15T01:06:07;14.60;40.90
30288;DHT22;17103;48.316;11.558;2022-11-15T01:08:33;14.60;40.90
30288;DHT22;17103;48.316;11.558;2022-11-15T01:11:05;14.60;41.00
30288;DHT22;17103;48.316;11.558;2022-11-15T01:13:35;14.60;40.90
30288;DHT22;17103;48.316;11.558;2022-11-15T01:16:17;14.60;40.90
30288;DHT22;17103;48.316;11.558;2022-11-15T01:18:45;14.60;40.70
30288;DHT22;17103;48.316;11.558;2022-11-15T01:21:16;14.60;40.80
30288;DHT22;17103;48.316;11.558;2022-11-15T01:23:42;14.60;40.80
30288;DHT22;17103;48.316;11.558;2022-11-15T01:26:13;14.60;40.80
30288;DHT22;17103;48.316;11.558;2022-11-15T01:28:40;14.60;40.60
30288;DHT22;17103;48.316;11.558;2022-11-15T01:31:12;14.70;40.60
30288;DHT22;17103;48.316;11.558;2022-11-15T01:33:38;14.60;40.50
30288;DHT22;17103;48.316;11.558;2022-11-15T01:36:10;14.90;40.70
30288;DHT22;17103;48.316;11.558;2022-11-15T01:38:37;14.60;40.20
30288;DHT22;17103;48.316;11.558;2022-11-15T01:41:03;14.60;40.30
30288;DHT22;17103;48.316;11.558;2022-11-15T01:43:36;14.50;40.20
30288;DHT22;17103;48.316;11.558;2022-11-15T01:48:42;14.50;40.30
30288;DHT22;17103;48.316;11.558;2022-11-15T01:51:10;14.50;40.50
30288;DHT22;17103;48.316;11.558;2022-11-15T01:53:38;14.90;40.70
30288;DHT22;17103;48.316;11.558;2022-11-15T01:56:07;14.50;39.90
30288;DHT22;17103;48.316;11.558;2022-11-15T01:58:34;14.40;39.40
30288;DHT22;17103;48.316;11.558;2022-11-15T02:01:01;14.40;39.60
30288;DHT22;17103;48.316;11.558;2022-11-15T02:03:33;14.30;39.70
30288;DHT22;17103;48.316;11.558;2022-11-15T02:05:59;14.70;40.00
30288;DHT22;17103;48.316;11.558;2022-11-15T02:08:25;14.20;39.70
30288;DHT22;17103;48.316;11.558;2022-11-15T02:10:52;14.20;39.70
30288;DHT22;17103;48.316;11.558;2022-11-15T02:13:18;14.10;39.80
30288;DHT22;17103;48.316;11.558;2022-11-15T02:15:58;14.10;39.90
30288;DHT22;17103;48.316;11.558;2022-11-15T02:18:34;14.10;39.70
30288;DHT22;17103;48.316;11.558;2022-11-15T02:29:41;14.10;39.70
30288;DHT22;17103;48.316;11.558;2022-11-15T02:32:15;14.10;39.70
30288;DHT22;17103;48.316;11.558;2022-11-15T02:37:39;14.10;39.80
30288;DHT22;17103;48.316;11.558;2022-11-15T02:43:00;14.10;39.80
30288;DHT22;17103;48.316;11.558;2022-11-15T02:45:56;14.10;39.90
30288;DHT22;17103;48.316;11.558;2022-11-15T02:48:26;14.10;40.00
30288;DHT22;17103;48.316;11.558;2022-11-15T02:50:52;14.10;40.00
30288;DHT22;17103;48.316;11.558;2022-11-15T02:53:20;14.80;40.60
30288;DHT22;17103;48.316;11.558;2022-11-15T02:55:50;14.00;40.00
30288;DHT22;17103;48.316;11.558;2022-11-15T03:06:44;14.10;40.20
30288;DHT22;17103;48.316;11.558;2022-11-15T03:11:58;14.10;40.10
30288;DHT22;17103;48.316;11.558;2022-11-15T03:14:32;14.10;40.20
30288;DHT22;17103;48.316;11.558;2022-11-15T03:17:22;14.10;40.20
30288;DHT22;17103;48.316;11.558;2022-11-15T03:19:52;14.10;40.20
30288;DHT22;17103;48.316;11.558;2022-11-15T03:22:21;14.10;40.20
30288;DHT22;17103;48.316;11.558;2022-11-15T03:24:53;14.10;40.00
30288;DHT22;17103;48.316;11.558;2022-11-15T03:27:22;14.30;40.10
30288;DHT22;17103;48.316;11.558;2022-11-15T03:30:04;14.10;40.10
30288;DHT22;17103;48.316;11.558;2022-11-15T03:32:35;14.10;40.10
30288;DHT22;17103;48.316;11.558;2022-11-15T03:35:12;14.00;40.10
30288;DHT22;17103;48.316;11.558;2022-11-15T03:37:56;14.00;40.00
30288;DHT22;17103;48.316;11.558;2022-11-15T03:40:29;14.00;40.00
30288;DHT22;17103;48.316;11.558;2022-11-15T03:43:09;14.00;39.70
30288;DHT22;17103;48.316;11.558;2022-11-15T03:45:43;14.00;39.20
30288;DHT22;17103;48.316;11.558;2022-11-15T03:48:16;13.90;39.50
30288;DHT22;17103;48.316;11.558;2022-11-15T03:50:45;13.80;39.50
30288;DHT22;17103;48.316;11.558;2022-11-15T03:53:12;13.80;39.70
30288;DHT22;17103;48.316;11.558;2022-11-15T03:55:39;14.20;40.10
30288;DHT22;17103;48.316;11.558;2022-11-15T03:58:05;13.70;39.70
30288;DHT22;17103;48.316;11.558;2022-11-15T04:00:31;13.70;39.80
30288;DHT22;17103;48.316;11.558;2022-11-15T04:02:57;13.90;40.00
30288;DHT22;17103;48.316;11.558;2022-11-15T04:05:22;13.70;39.70
30288;DHT22;17103;48.316;11.558;2022-11-15T04:07:48;13.60;39.70
30288;DHT22;17103;48.316;11.558;2022-11-15T04:10:14;13.70;40.00
30288;DHT22;17103;48.316;11.558;2022-11-15T04:12:42;13.70;40.00
30288;DHT22;17103;48.316;11.558;2022-11-15T04:15:09;13.90;40.10
30288;DHT22;17103;48.316;11.558;2022-11-15T04:17:44;13.70;39.90
30288;DHT22;17103;48.316;11.558;2022-11-15T04:20:21;13.70;39.80
30288;DHT22;17103;48.316;11.558;2022-11-15T04:23:14;13.70;39.80
30288;DHT22;17103;48.316;11.558;2022-11-15T04:26:03;13.80;39.90
30288;DHT22;17103;48.316;11.558;2022-11-15T04:28:29;13.80;40.00
30288;DHT22;17103;48.316;11.558;2022-11-15T04:30:55;13.90;40.10
30288;DHT22;17103;48.316;11.558;2022-11-15T04:33:21;14.00;40.10
30288;DHT22;17103;48.316;11.558;2022-11-15T04:35:47;14.00;40.00
30288;DHT22;17103;48.316;11.558;2022-11-15T04:38:34;14.10;40.00
30288;DHT22;17103;48.316;11.558;2022-11-15T04:41:00;14.00;39.70
30288;DHT22;17103;48.316;11.558;2022-11-15T04:43:25;14.00;39.60
30288;DHT22;17103;48.316;11.558;2022-11-15T04:45:51;14.00;39.60
30288;DHT22;17103;48.316;11.558;2022-11-15T04:48:22;14.00;39.40
30288;DHT22;17103;48.316;11.558;2022-11-15T04:50:49;14.00;39.00
30288;DHT22;17103;48.316;11.558;2022-11-15T04:53:14;13.90;38.70
30288;DHT22;17103;48.316;11.558;2022-11-15T04:55:40;13.80;38.40
30288;DHT22;17103;48.316;11.558;2022-11-15T04:58:12;13.70;38.20
30288;DHT22;17103;48.316;11.558;2022-11-15T05:00:47;13.90;38.30
30288;DHT22;17103;48.316;11.558;2022-11-15T05:03:14;13.40;38.00
30288;DHT22;17103;48.316;11.558;2022-11-15T05:05:58;13.30;38.10
30288;DHT22;17103;48.316;11.558;2022-11-15T05:08:26;13.00;38.10
30288;DHT22;17103;48.316;11.558;2022-11-15T05:10:52;12.80;38.20
30288;DHT22;17103;48.316;11.558;2022-11-15T05:13:17;12.60;38.30
30288;DHT22;17103;48.316;11.558;2022-11-15T05:15:43;12.50;38.40
30288;DHT22;17103;48.316;11.558;2022-11-15T05:18:09;12.30;38.50
30288;DHT22;17103;48.316;11.558;2022-11-15T05:20:44;12.20;38.70
30288;DHT22;17103;48.316;11.558;2022-11-15T05:23:10;12.00;38.80
30288;DHT22;17103;48.316;11.558;2022-11-15T05:25:39;11.90;38.90
30288;DHT22;17103;48.316;11.558;2022-11-15T05:28:09;11.70;38.90
30288;DHT22;17103;48.316;11.558;2022-11-15T05:30:35;11.60;39.10
30288;DHT22;17103;48.316;11.558;2022-11-15T05:33:03;11.50;39.10
30288;DHT22;17103;48.316;11.558;2022-11-15T05:35:41;11.70;39.40
30288;DHT22;17103;48.316;11.558;2022-11-15T05:38:08;11.30;39.30
30288;DHT22;17103;48.316;11.558;2022-11-15T05:40:38;11.20;39.40
30288;DHT22;17103;48.316;11.558;2022-11-15T05:43:05;11.10;39.60
30288;DHT22;17103;48.316;11.558;2022-11-15T05:45:33;11.00;40.20
30288;DHT22;17103;48.316;11.558;2022-11-15T05:48:04;10.90;39.80
30288;DHT22;17103;48.316;11.558;2022-11-15T05:50:40;11.70;40.70
30288;DHT22;17103;48.316;11.558;2022-11-15T05:53:07;10.70;40.10
30288;DHT22;17103;48.316;11.558;2022-11-15T05:55:33;10.60;40.10
30288;DHT22;17103;48.316;11.558;2022-11-15T05:58:01;10.50;40.20
30288;DHT22;17103;48.316;11.558;2022-11-15T06:00:28;10.50;40.30
30288;DHT22;17103;48.316;11.558;2022-11-15T06:02:54;10.40;40.30
30288;DHT22;17103;48.316;11.558;2022-11-15T06:05:21;10.30;40.30
30288;DHT22;17103;48.316;11.558;2022-11-15T06:07:47;10.30;40.50
30288;DHT22;17103;48.316;11.558;2022-11-15T06:10:13;10.20;40.50
30288;DHT22;17103;48.316;11.558;2022-11-15T06:13:10;10.20;40.60
30288;DHT22;17103;48.316;11.558;2022-11-15T06:15:36;10.20;40.90
30288;DHT22;17103;48.316;11.558;2022-11-15T06:18:01;10.10;40.80
30288;DHT22;17103;48.316;11.558;2022-11-15T06:20:31;10.00;40.80
30288;DHT22;17103;48.316;11.558;2022-11-15T06:23:03;10.00;41.00
30288;DHT22;17103;48.316;11.558;2022-11-15T06:25:31;10.30;41.40
30288;DHT22;17103;48.316;11.558;2022-11-15T06:27:58;10.80;41.90
30288;DHT22;17103;48.316;11.558;2022-11-15T06:30:25;9.90;42.10
30288;DHT22;17103;48.316;11.558;2022-11-15T06:32:51;9.80;42.30
30288;DHT22;17103;48.316;11.558;2022-11-15T06:35:17;9.80;42.40
30288;DHT22;17103;48.316;11.558;2022-11-15T06:37:43;9.70;42.40
30288;DHT22;17103;48.316;11.558;2022-11-15T06:40:10;10.20;42.40
30288;DHT22;17103;48.316;11.558;2022-11-15T06:42:41;9.70;42.80
30288;DHT22;17103;48.316;11.558;2022-11-15T06:45:08;10.20;42.40
30288;DHT22;17103;48.316;11.558;2022-11-15T06:47:35;9.60;42.70
30288;DHT22;17103;48.316;11.558;2022-11-15T06:50:01;10.90;43.10
30288;DHT22;17103;48.316;11.558;2022-11-15T06:52:28;9.50;43.10
30288;DHT22;17103;48.316;11.558;2022-11-15T06:54:57;10.60;43.20
30288;DHT22;17103;48.316;11.558;2022-11-15T06:57:23;10.00;43.10
30288;DHT22;17103;48.316;11.558;2022-11-15T06:59:49;9.40;43.20
30288;DHT22;17103;48.316;11.558;2022-11-15T07:02:15;8.60;42.70
30288;DHT22;17103;48.316;11.558;2022-11-15T07:04:41;9.40;43.40
30288;DHT22;17103;48.316;11.558;2022-11-15T07:07:06;9.40;43.50
30288;DHT22;17103;48.316;11.558;2022-11-15T07:09:36;9.40;43.60
30288;DHT22;17103;48.316;11.558;2022-11-15T07:12:05;9.50;43.80
30288;DHT22;17103;48.316;11.558;2022-11-15T07:14:33;9.30;43.80
30288;DHT22;17103;48.316;11.558;2022-11-15T07:16:58;9.30;43.80
30288;DHT22;17103;48.316;11.558;2022-11-15T07:19:24;9.30;43.90
30288;DHT22;17103;48.316;11.558;2022-11-15T07:21:54;9.30;44.00
30288;DHT22;17103;48.316;11.558;2022-11-15T07:24:19;9.50;44.30
30288;DHT22;17103;48.316;11.558;2022-11-15T07:26:45;9.20;44.10
30288;DHT22;17103;48.316;11.558;2022-11-15T07:29:11;9.20;44.00
30288;DHT22;17103;48.316;11.558;2022-11-15T07:31:36;9.20;44.10
30288;DHT22;17103;48.316;11.558;2022-11-15T07:34:06;10.60;44.50
30288;DHT22;17103;48.316;11.558;2022-11-15T07:36:34;10.00;44.40
30288;DHT22;17103;48.316;11.558;2022-11-15T07:39:00;9.90;45.20
30288;DHT22;17103;48.316;11.558;2022-11-15T07:41:28;9.20;44.70
30288;DHT22;17103;48.316;11.558;2022-11-15T07:43:55;9.30;44.90
30288;DHT22;17103;48.316;11.558;2022-11-15T07:46:23;9.30;45.00
30288;DHT22;17103;48.316;11.558;2022-11-15T07:48:48;9.30;45.00
30288;DHT22;17103;48.316;11.558;2022-11-15T07:51:15;9.30;45.00
30288;DHT22;17103;48.316;11.558;2022-11-15T07:53:46;9.30;45.10
30288;DHT22;17103;48.316;11.558;2022-11-15T07:56:13;9.30;45.30
30288;DHT22;17103;48.316;11.558;2022-11-15T07:58:42;9.50;45.10
30288;DHT22;17103;48.316;11.558;2022-11-15T08:01:09;9.80;45.80
30288;DHT22;17103;48.316;11.558;2022-11-15T08:03:51;9.70;45.80
30288;DHT22;17103;48.316;11.558;2022-11-15T08:06:22;9.50;45.80
30288;DHT22;17103;48.316;11.558;2022-11-15T08:08:47;9.60;45.80
30288;DHT22;17103;48.316;11.558;2022-11-15T08:11:24;9.60;45.80
30288;DHT22;17103;48.316;11.558;2022-11-15T08:13:49;9.70;46.10
30288;DHT22;17103;48.316;11.558;2022-11-15T08:16:15;10.40;45.60
30288;DHT22;17103;48.316;11.558;2022-11-15T08:18:41;9.80;46.10
30288;DHT22;17103;48.316;11.558;2022-11-15T08:21:09;10.10;45.50
30288;DHT22;17103;48.316;11.558;2022-11-15T08:23:36;9.90;47.30
30288;DHT22;17103;48.316;11.558;2022-11-15T08:26:04;10.00;46.80
30288;DHT22;17103;48.316;11.558;2022-11-15T08:28:32;10.10;46.50
30288;DHT22;17103;48.316;11.558;2022-11-15T08:31:00;10.30;46.20
30288;DHT22;17103;48.316;11.558;2022-11-15T08:33:27;10.40;45.90
30288;DHT22;17103;48.316;11.558;2022-11-15T08:35:56;10.50;45.70
30288;DHT22;17103;48.316;11.558;2022-11-15T08:38:22;10.60;45.60
30288;DHT22;17103;48.316;11.558;2022-11-15T08:40:49;10.90;45.60
30288;DHT22;17103;48.316;11.558;2022-11-15T08:43:15;11.60;46.10
30288;DHT22;17103;48.316;11.558;2022-11-15T08:45:41;11.10;45.50
30288;DHT22;17103;48.316;11.558;2022-11-15T08:48:07;11.00;45.40
30288;DHT22;17103;48.316;11.558;2022-11-15T08:50:32;10.90;45.30
30288;DHT22;17103;48.316;11.558;2022-11-15T08:53:05;11.00;45.20
30288;DHT22;17103;48.316;11.558;2022-11-15T08:55:32;11.10;45.30
30288;DHT22;17103;48.316;11.558;2022-11-15T08:57:57;11.10;45.20
30288;DHT22;17103;48.316;11.558;2022-11-15T09:00:23;11.20;45.20
30288;DHT22;17103;48.316;11.558;2022-11-15T09:02:49;12.20;45.90
30288;DHT22;17103;48.316;11.558;2022-11-15T09:05:14;12.30;45.90
30288;DHT22;17103;48.316;11.558;2022-11-15T09:07:43;11.40;45.20
30288;DHT22;17103;48.316;11.558;2022-11-15T09:10:10;12.10;45.70
30288;DHT22;17103;48.316;11.558;2022-11-15T09:12:35;11.50;45.10
30288;DHT22;17103;48.316;11.558;2022-11-15T09:15:01;11.60;45.20
30288;DHT22;17103;48.316;11.558;2022-11-15T09:17:27;11.70;45.20
30288;DHT22;17103;48.316;11.558;2022-11-15T09:19:53;11.80;45.30
30288;DHT22;17103;48.316;11.558;2022-11-15T09:22:19;11.90;45.40
30288;DHT22;17103;48.316;11.558;2022-11-15T09:24:45;12.60;46.00
30288;DHT22;17103;48.316;11.558;2022-11-15T09:27:14;12.00;45.50
30288;DHT22;17103;48.316;11.558;2022-11-15T09:29:40;12.20;45.70
30288;DHT22;17103;48.316;11.558;2022-11-15T09:32:06;12.20;45.80
30288;DHT22;17103;48.316;11.558;2022-11-15T09:34:32;12.90;46.10
30288;DHT22;17103;48.316;11.558;2022-11-15T09:36:58;11.40;44.90
30288;DHT22;17103;48.316;11.558;2022-11-15T09:39:23;12.60;45.90
30288;DHT22;17103;48.316;11.558;2022-11-15T09:45:26;12.80;45.80
30288;DHT22;17103;48.316;11.558;2022-11-15T09:50:46;13.00;45.60
30288;DHT22;17103;48.316;11.558;2022-11-15T09:56:00;13.30;45.80
30288;DHT22;17103;48.316;11.558;2022-11-15T09:59:12;13.40;45.80
30288;DHT22;17103;48.316;11.558;2022-11-15T10:04:25;13.70;46.00
30288;DHT22;17103;48.316;11.558;2022-11-15T10:12:35;14.10;45.40
30288;DHT22;17103;48.316;11.558;2022-11-15T10:15:09;14.20;45.80
30288;DHT22;17103;48.316;11.558;2022-11-15T10:20:31;14.50;45.20
30288;DHT22;17103;48.316;11.558;2022-11-15T10:23:06;14.70;45.30
30288;DHT22;17103;48.316;11.558;2022-11-15T10:25:40;15.10;45.40
30288;DHT22;17103;48.316;11.558;2022-11-15T10:28:12;14.90;44.90
30288;DHT22;17103;48.316;11.558;2022-11-15T10:30:42;15.00;44.80
30288;DHT22;17103;48.316;11.558;2022-11-15T10:36:26;15.20;44.20
30288;DHT22;17103;48.316;11.558;2022-11-15T10:41:35;16.20;45.00
30288;DHT22;17103;48.316;11.558;2022-11-15T10:44:29;15.70;43.80
30288;DHT22;17103;48.316;11.558;2022-11-15T10:49:31;16.80;44.50
30288;DHT22;17103;48.316;11.558;2022-11-15T10:52:19;16.20;43.60
30288;DHT22;17103;48.316;11.558;2022-11-15T10:55:19;16.40;43.70
30288;DHT22;17103;48.316;11.558;2022-11-15T10:57:59;16.40;43.10
30288;DHT22;17103;48.316;11.558;2022-11-15T11:00:33;16.90;43.50
30288;DHT22;17103;48.316;11.558;2022-11-15T11:03:03;17.50;44.40
30288;DHT22;17103;48.316;11.558;2022-11-15T11:05:38;17.10;43.80
30288;DHT22;17103;48.316;11.558;2022-11-15T11:10:52;17.10;43.10
30288;DHT22;17103;48.316;11.558;2022-11-15T11:13:42;17.20;43.00
30288;DHT22;17103;48.316;11.558;2022-11-15T11:19:05;17.50;43.80
30288;DHT22;17103;48.316;11.558;2022-11-15T11:21:40;17.60;44.30
30288;DHT22;17103;48.316;11.558;2022-11-15T11:24:33;17.70;44.20
30288;DHT22;17103;48.316;11.558;2022-11-15T11:35:32;18.30;44.10
30288;DHT22;17103;48.316;11.558;2022-11-15T11:46:34;19.40;45.80
30288;DHT22;17103;48.316;11.558;2022-11-15T11:52:18;19.40;45.10
30288;DHT22;17103;48.316;11.558;2022-11-15T11:55:20;19.50;44.10
30288;DHT22;17103;48.316;11.558;2022-11-15T11:58:19;19.70;44.00
30288;DHT22;17103;48.316;11.558;2022-11-15T12:03:59;20.10;44.40
30288;DHT22;17103;48.316;11.558;2022-11-15T12:07:01;20.30;45.00
30288;DHT22;17103;48.316;11.558;2022-11-15T12:10:03;20.40;43.90
30288;DHT22;17103;48.316;11.558;2022-11-15T12:12:41;20.60;43.90
30288;DHT22;17103;48.316;11.558;2022-11-15T12:17:39;21.00;43.60
30288;DHT22;17103;48.316;11.558;2022-11-15T12:20:27;21.70;44.40
30288;DHT22;17103;48.316;11.558;2022-11-15T12:23:05;21.30;43.00
30288;DHT22;17103;48.316;11.558;2022-11-15T12:31:23;21.90;43.20
30288;DHT22;17103;48.316;11.558;2022-11-15T12:33:56;22.10;43.00
30288;DHT22;17103;48.316;11.558;2022-11-15T12:36:38;22.30;42.40
30288;DHT22;17103;48.316;11.558;2022-11-15T12:39:10;22.50;42.80
30288;DHT22;17103;48.316;11.558;2022-11-15T12:41:42;22.70;43.10
30288;DHT22;17103;48.316;11.558;2022-11-15T12:47:24;22.90;41.30
30288;DHT22;17103;48.316;11.558;2022-11-15T12:49:53;23.20;42.20
30288;DHT22;17103;48.316;11.558;2022-11-15T12:52:26;23.70;42.20
30288;DHT22;17103;48.316;11.558;2022-11-15T12:54:55;23.60;42.10
30288;DHT22;17103;48.316;11.558;2022-11-15T12:57:38;23.70;41.60
30288;DHT22;17103;48.316;11.558;2022-11-15T13:03:21;24.10;41.70
30288;DHT22;17103;48.316;11.558;2022-11-15T13:05:56;24.20;41.40
30288;DHT22;17103;48.316;11.558;2022-11-15T13:08:42;24.40;40.90
30288;DHT22;17103;48.316;11.558;2022-11-15T13:11:41;24.60;41.10
30288;DHT22;17103;48.316;11.558;2022-11-15T13:14:44;24.70;39.80
30288;DHT22;17103;48.316;11.558;2022-11-15T13:17:32;24.80;41.00
30288;DHT22;17103;48.316;11.558;2022-11-15T13:22:51;25.10;40.50
30288;DHT22;17103;48.316;11.558;2022-11-15T13:33:31;25.90;38.90
30288;DHT22;17103;48.316;11.558;2022-11-15T13:36:15;25.60;38.50
30288;DHT22;17103;48.316;11.558;2022-11-15T13:38:43;25.80;38.40
30288;DHT22;17103;48.316;11.558;2022-11-15T13:41:29;25.90;39.70
30288;DHT22;17103;48.316;11.558;2022-11-15T13:43:56;26.20;38.40
30288;DHT22;17103;48.316;11.558;2022-11-15T13:46:33;26.20;39.20
30288;DHT22;17103;48.316;11.558;2022-11-15T13:49:05;26.20;38.40
30288;DHT22;17103;48.316;11.558;2022-11-15T13:51:44;26.30;37.60
30288;DHT22;17103;48.316;11.558;2022-11-15T13:54:25;26.40;37.50
30288;DHT22;17103;48.316;11.558;2022-11-15T13:58:08;26.50;37.60
30288;DHT22;17103;48.316;11.558;2022-11-15T14:00:37;26.50;37.70
30288;DHT22;17103;48.316;11.558;2022-11-15T14:03:30;26.50;37.00
30288;DHT22;17103;48.316;11.558;2022-11-15T14:06:21;26.50;35.60
30288;DHT22;17103;48.316;11.558;2022-11-15T14:14:59;26.40;36.00
30288;DHT22;17103;48.316;11.558;2022-11-15T14:19:57;26.40;36.00
30288;DHT22;17103;48.316;11.558;2022-11-15T14:22:31;26.30;35.50
30288;DHT22;17103;48.316;11.558;2022-11-15T14:25:25;26.80;35.70
30288;DHT22;17103;48.316;11.558;2022-11-15T14:28:27;26.30;35.90
30288;DHT22;17103;48.316;11.558;2022-11-15T14:30:56;26.30;34.80
30288;DHT22;17103;48.316;11.558;2022-11-15T14:36:33;26.10;33.90
30288;DHT22;17103;48.316;11.558;2022-11-15T14:39:07;25.90;33.60
30288;DHT22;17103;48.316;11.558;2022-11-15T14:41:37;25.90;33.80
30288;DHT22;17103;48.316;11.558;2022-11-15T14:44:18;25.60;33.80
30288;DHT22;17103;48.316;11.558;2022-11-15T14:46:47;25.50;33.20
30288;DHT22;17103;48.316;11.558;2022-11-15T14:49:51;25.10;32.90
30288;DHT22;17103;48.316;11.558;2022-11-15T14:52:39;25.00;33.00
30288;DHT22;17103;48.316;11.558;2022-11-15T14:55:30;24.70;33.20
30288;DHT22;17103;48.316;11.558;2022-11-15T14:58:02;24.30;33.30
30288;DHT22;17103;48.316;11.558;2022-11-15T15:00:53;24.00;33.80
30288;DHT22;17103;48.316;11.558;2022-11-15T15:03:38;23.70;33.90
30288;DHT22;17103;48.316;11.558;2022-11-15T15:06:07;23.30;33.90
30288;DHT22;17103;48.316;11.558;2022-11-15T15:08:51;23.00;34.40
30288;DHT22;17103;48.316;11.558;2022-11-15T15:11:25;22.70;34.20
30288;DHT22;17103;48.316;11.558;2022-11-15T15:14:00;22.50;34.60
30288;DHT22;17103;48.316;11.558;2022-11-15T15:16:26;22.20;34.70
30288;DHT22;17103;48.316;11.558;2022-11-15T15:18:55;22.20;35.10
30288;DHT22;17103;48.316;11.558;2022-11-15T15:21:27;21.80;35.10
30288;DHT22;17103;48.316;11.558;2022-11-15T15:23:56;21.30;35.00
30288;DHT22;17103;48.316;11.558;2022-11-15T15:26:28;21.60;35.60
30288;DHT22;17103;48.316;11.558;2022-11-15T15:28:59;21.10;35.50
30288;DHT22;17103;48.316;11.558;2022-11-15T15:31:24;20.90;35.70
30288;DHT22;17103;48.316;11.558;2022-11-15T15:33:59;20.80;36.00
30288;DHT22;17103;48.316;11.558;2022-11-15T15:36:25;20.60;36.10
30288;DHT22;17103;48.316;11.558;2022-11-15T15:38:50;20.40;36.20
30288;DHT22;17103;48.316;11.558;2022-11-15T15:41:20;20.20;36.30
30288;DHT22;17103;48.316;11.558;2022-11-15T15:43:47;20.30;36.70
30288;DHT22;17103;48.316;11.558;2022-11-15T15:46:17;19.80;36.60
30288;DHT22;17103;48.316;11.558;2022-11-15T15:48:47;20.10;37.30
30288;DHT22;17103;48.316;11.558;2022-11-15T15:51:22;19.40;37.00
30288;DHT22;17103;48.316;11.558;2022-11-15T15:54:00;19.20;37.20
30288;DHT22;17103;48.316;11.558;2022-11-15T15:56:28;18.80;37.10
30288;DHT22;17103;48.316;11.558;2022-11-15T15:58:54;18.90;37.50
30288;DHT22;17103;48.316;11.558;2022-11-15T16:01:31;19.30;38.20
30288;DHT22;17103;48.316;11.558;2022-11-15T16:03:58;19.00;38.30
30288;DHT22;17103;48.316;11.558;2022-11-15T16:06:39;19.00;38.50
30288;DHT22;17103;48.316;11.558;2022-11-15T16:09:18;19.20;38.90
30288;DHT22;17103;48.316;11.558;2022-11-15T16:11:44;18.20;38.40
30288;DHT22;17103;48.316;11.558;2022-11-15T16:14:13;18.30;38.40
30288;DHT22;17103;48.316;11.558;2022-11-15T16:16:39;18.00;38.50
30288;DHT22;17103;48.316;11.558;2022-11-15T16:19:11;17.90;38.50
30288;DHT22;17103;48.316;11.558;2022-11-15T16:21:42;18.10;38.90
30288;DHT22;17103;48.316;11.558;2022-11-15T16:24:09;17.70;38.60
30288;DHT22;17103;48.316;11.558;2022-11-15T16:26:35;17.60;38.50
30288;DHT22;17103;48.316;11.558;2022-11-15T16:29:02;17.60;38.70
30288;DHT22;17103;48.316;11.558;2022-11-15T16:31:30;17.50;38.70
30288;DHT22;17103;48.316;11.558;2022-11-15T16:33:55;17.50;38.80
30288;DHT22;17103;48.316;11.558;2022-11-15T16:36:23;17.40;38.80
30288;DHT22;17103;48.316;11.558;2022-11-15T16:38:51;17.30;38.90
30288;DHT22;17103;48.316;11.558;2022-11-15T16:41:20;17.20;39.00
30288;DHT22;17103;48.316;11.558;2022-11-15T16:43:56;17.20;39.50
30288;DHT22;17103;48.316;11.558;2022-11-15T16:46:25;17.10;39.20
30288;DHT22;17103;48.316;11.558;2022-11-15T16:48:54;17.00;39.20
30288;DHT22;17103;48.316;11.558;2022-11-15T16:51:24;16.90;39.20
30288;DHT22;17103;48.316;11.558;2022-11-15T16:53:50;16.90;39.40
30288;DHT22;17103;48.316;11.558;2022-11-15T16:56:25;16.80;39.40
30288;DHT22;17103;48.316;11.558;2022-11-15T16:58:56;16.70;39.50
30288;DHT22;17103;48.316;11.558;2022-11-15T17:01:41;16.60;39.50
30288;DHT22;17103;48.316;11.558;2022-11-15T17:04:19;16.60;39.70
30288;DHT22;17103;48.316;11.558;2022-11-15T17:06:51;17.50;40.50
30288;DHT22;17103;48.316;11.558;2022-11-15T17:09:29;16.50;39.90
30288;DHT22;17103;48.316;11.558;2022-11-15T17:11:55;16.40;40.00
30288;DHT22;17103;48.316;11.558;2022-11-15T17:14:21;16.30;39.90
30288;DHT22;17103;48.316;11.558;2022-11-15T17:16:46;16.30;40.00
30288;DHT22;17103;48.316;11.558;2022-11-15T17:19:24;16.20;40.10
30288;DHT22;17103;48.316;11.558;2022-11-15T17:21:52;16.20;40.40
30288;DHT22;17103;48.316;11.558;2022-11-15T17:24:19;16.10;40.20
30288;DHT22;17103;48.316;11.558;2022-11-15T17:26:45;16.10;40.20
30288;DHT22;17103;48.316;11.558;2022-11-15T17:29:11;16.00;40.30
30288;DHT22;17103;48.316;11.558;2022-11-15T17:31:41;16.00;40.40
30288;DHT22;17103;48.316;11.558;2022-11-15T17:34:14;15.90;40.40
30288;DHT22;17103;48.316;11.558;2022-11-15T17:39:39;15.80;40.20
30288;DHT22;17103;48.316;11.558;2022-11-15T17:42:09;15.60;40.40
30288;DHT22;17103;48.316;11.558;2022-11-15T17:44:52;15.70;40.50
30288;DHT22;17103;48.316;11.558;2022-11-15T17:47:20;16.20;41.20
30288;DHT22;17103;48.316;11.558;2022-11-15T17:49:55;15.70;40.90